Quaker, Indiana
Current Conditions -  °F | °C
As of 3:55 PM on Tuesday 27 Jan 2015 (Local Time) from KPRG Reporting Station
Overcast Overcast  
Wind Chill: 31°   Ceiling: 1700
Heat Index: 31°   Visibility: 10mi
Dew Point: 28°   Wind: 3mph
Humidity: 90%   Direction: 20°NNE
Pressure: 30.18"   Gusts: NA
Location:  39.7561°N, 87.4866°W
Report Text: KPRG 272055Z AUTO 02003KT 10SM OVC017 M01/M02 A3018 RMK AO2 T10071022
Loading
Personal Weather Stations






























Interactive Weather Map New forecast layout! Learn more

10-Day Weather Forecast

Advertisements
Track Severe Weather on mobile